Time;durP1;ratioP1;P1;durP2;ratioP2;P2;SDS_P1;SDS_P2;PMS_P1;PMS_P2;Temp;Humidity;BMP_temperature;BMP_pressure;BME280_temperature;BME280_humidity;BME280_pressure;Samples;Min_cycle;Max_cycle;Signal;HPM_P1;HPM_P2
2021/12/29 00:00:57;;;;;;;;;33.50;28.00;;;;;12.16;44.67;97199.88;4883703;28;101730;-84
2021/12/29 00:03:24;;;;;;;;;31.25;22.00;;;;;12.16;44.67;97186.31;4882566;28;102908;-84
2021/12/29 00:05:51;;;;;;;;;25.50;21.75;;;;;12.14;45.23;97191.97;4889759;28;102294;-84
2021/12/29 00:08:18;;;;;;;;;28.50;25.25;;;;;12.13;44.53;97192.22;4881979;28;103212;-84
2021/12/29 00:10:47;;;;;;;;;34.00;26.00;;;;;12.11;44.69;97192.47;4866864;28;105622;-84
2021/12/29 00:13:14;;;;;;;;;29.75;27.50;;;;;12.11;44.45;97203.31;4884939;28;101712;-84
2021/12/29 00:15:41;;;;;;;;;26.25;23.50;;;;;12.12;44.84;97202.22;4879700;28;102182;-84
2021/12/29 00:18:12;;;;;;;;;26.75;24.25;;;;;12.11;44.90;97202.50;4884285;28;103556;-84
2021/12/29 00:20:39;;;;;;;;;27.50;23.50;;;;;12.10;44.84;97200.84;4885653;28;102296;-84
2021/12/29 00:23:07;;;;;;;;;30.75;27.00;;;;;12.07;45.14;97197.53;4879032;28;102769;-84
2021/12/29 00:25:38;;;;;;;;;25.25;20.75;;;;;12.07;45.37;97188.59;4881352;28;103581;-84
2021/12/29 00:28:06;;;;;;;;;28.50;26.50;;;;;12.07;44.66;97185.88;4882625;28;103482;-84
2021/12/29 00:30:33;;;;;;;;;29.75;25.50;;;;;12.08;45.24;97188.34;4881758;28;102300;-84
2021/12/29 00:33:00;;;;;;;;;34.75;27.00;;;;;12.06;45.33;97176.97;4885249;28;102635;-84
2021/12/29 00:35:28;;;;;;;;;33.50;23.75;;;;;12.08;44.67;97182.13;4884012;28;103133;-84
2021/12/29 00:37:59;;;;;;;;;27.75;23.25;;;;;12.06;44.93;97182.38;4883585;28;103756;-84
2021/12/29 00:40:26;;;;;;;;;33.00;26.50;;;;;12.05;45.47;97186.16;4882944;28;102193;-84
2021/12/29 00:42:53;;;;;;;;;28.50;24.00;;;;;12.06;45.03;97173.44;4879350;28;102955;-84
2021/12/29 00:45:20;;;;;;;;;27.50;22.75;;;;;12.05;44.79;97177.19;4885273;28;101864;-85
2021/12/29 00:47:49;;;;;;;;;30.50;24.75;;;;;12.03;45.05;97172.00;4887454;28;103400;-85
2021/12/29 00:50:16;;;;;;;;;9.75;2.75;;;;;12.01;44.74;97170.63;4878322;28;102358;-84
2021/12/29 00:52:46;;;;;;;;;33.75;28.50;;;;;12.00;45.21;97171.69;4885758;28;103582;-84
2021/12/29 00:55:14;;;;;;;;;25.50;21.00;;;;;12.00;44.50;97166.28;4869146;28;102457;-84
2021/12/29 00:57:41;;;;;;;;;29.75;25.75;;;;;11.99;44.85;97170.03;4884087;28;103365;-85
2021/12/29 01:00:11;;;;;;;;;27.50;24.00;;;;;11.97;45.13;97174.91;4882583;28;103065;-84
2021/12/29 01:02:38;;;;;;;;;30.50;24.25;;;;;11.96;45.26;97189.50;4880275;28;102247;-84
2021/12/29 01:05:09;;;;;;;;;36.25;27.00;;;;;11.96;45.09;97178.66;4870399;28;103778;-84
2021/12/29 01:07:36;;;;;;;;;32.75;29.75;;;;;11.93;45.01;97173.75;4879978;28;103627;-84
2021/12/29 01:10:04;;;;;;;;;34.00;26.75;;;;;11.95;44.85;97177.00;4864605;28;102181;-84
2021/12/29 01:12:32;;;;;;;;;35.00;27.75;;;;;11.94;45.46;97172.66;4884046;28;103223;-85
2021/12/29 01:15:01;;;;;;;;;29.25;26.25;;;;;11.93;44.36;97182.66;4867629;28;102055;-85
2021/12/29 01:17:28;;;;;;;;;33.75;21.75;;;;;11.91;44.80;97170.44;4880863;28;103558;-85
2021/12/29 01:19:56;;;;;;;;;29.50;27.00;;;;;11.92;44.36;97167.50;4882109;28;102048;-85
2021/12/29 01:22:26;;;;;;;;;28.50;24.25;;;;;11.92;44.53;97177.50;4887414;28;102183;-84
2021/12/29 01:24:54;;;;;;;;;27.50;24.50;;;;;11.93;44.69;97173.75;4884152;28;102261;-85
2021/12/29 01:27:21;;;;;;;;;21.50;21.00;;;;;11.93;44.50;97177.25;4876263;28;103513;-84
2021/12/29 01:29:48;;;;;;;;;31.75;27.50;;;;;11.92;44.67;97177.50;4880529;28;103918;-84
2021/12/29 01:32:15;;;;;;;;;29.25;25.75;;;;;11.91;45.04;97179.41;4885598;28;102191;-84
2021/12/29 01:34:42;;;;;;;;;27.50;22.25;;;;;11.90;44.74;97179.63;4879566;28;102183;-84
2021/12/29 01:37:10;;;;;;;;;27.25;23.00;;;;;11.90;45.05;97177.75;4884315;28;103487;-84
2021/12/29 01:39:37;;;;;;;;;25.00;21.00;;;;;11.90;44.88;97190.47;4887243;28;103317;-84
2021/12/29 01:42:04;;;;;;;;;28.50;23.00;;;;;11.88;45.21;97188.03;4885854;28;101711;-84
2021/12/29 01:44:31;;;;;;;;;29.00;25.00;;;;;11.89;45.08;97186.94;4889566;28;102429;-84
2021/12/29 01:46:58;;;;;;;;;34.75;26.25;;;;;11.89;44.29;97184.22;4889379;28;103350;-84
2021/12/29 01:49:28;;;;;;;;;24.00;19.25;;;;;11.90;44.41;97196.69;4892631;28;101997;-85
2021/12/29 01:52:09;;;;;;;;;27.00;21.00;;;;;11.91;44.29;97192.13;4885330;28;102170;-85
2021/12/29 01:54:36;;;;;;;;;15.75;9.00;;;;;11.91;44.50;97186.69;4887577;28;102322;-84
2021/12/29 01:57:06;;;;;;;;;30.50;26.50;;;;;11.94;44.21;97187.03;4889629;28;103282;-84
2021/12/29 01:59:35;;;;;;;;;33.50;25.00;;;;;11.91;44.41;97181.28;4890394;28;103455;-84
2021/12/29 02:02:03;;;;;;;;;28.25;25.50;;;;;11.89;44.85;97183.41;4875050;28;103017;-84
2021/12/29 02:04:30;;;;;;;;;24.25;22.00;;;;;11.89;44.74;97184.22;4866297;28;102213;-84
2021/12/29 02:07:02;;;;;;;;;26.75;20.00;;;;;11.89;44.86;97180.69;4891315;28;103619;-85
2021/12/29 02:09:29;;;;;;;;;28.00;24.00;;;;;11.86;44.79;97175.78;4881253;28;102128;-85
2021/12/29 02:11:56;;;;;;;;;26.00;23.00;;;;;11.87;44.83;97174.72;4893523;28;102084;-84
2021/12/29 02:14:23;;;;;;;;;24.25;20.75;;;;;11.85;44.54;97177.66;4892899;28;102062;-85
2021/12/29 02:16:51;;;;;;;;;29.00;25.75;;;;;11.82;44.86;97175.44;4889269;28;103275;-84
2021/12/29 02:19:18;;;;;;;;;26.75;21.75;;;;;11.83;44.36;97173.56;4889613;28;101900;-85
2021/12/29 02:21:55;;;;;;;;;32.25;25.25;;;;;11.86;44.55;97178.47;4886560;28;102230;-84
2021/12/29 02:24:34;;;;;;;;;30.25;25.50;;;;;11.85;44.78;97183.06;4887397;28;102437;-85
2021/12/29 02:27:02;;;;;;;;;25.00;22.00;;;;;11.85;44.74;97174.94;4885555;28;103309;-85
2021/12/29 02:29:29;;;;;;;;;29.25;24.50;;;;;11.85;44.89;97169.53;4888229;28;102358;-84
2021/12/29 02:31:56;;;;;;;;;28.75;22.75;;;;;11.82;44.60;97182.75;4869226;28;102133;-84
2021/12/29 02:34:26;;;;;;;;;16.75;15.00;;;;;11.81;44.67;97179.22;4886838;28;105741;-84
2021/12/29 02:36:54;;;;;;;;;30.50;23.75;;;;;11.80;44.18;97174.84;4884482;28;103584;-84
2021/12/29 02:39:21;;;;;;;;;23.50;22.25;;;;;11.80;44.39;97171.31;4885466;28;102203;-84
2021/12/29 02:41:52;;;;;;;;;33.75;28.00;;;;;11.77;44.39;97180.75;4881989;28;102106;-84
2021/12/29 02:44:25;;;;;;;;;26.50;22.25;;;;;11.79;44.52;97175.13;4875663;28;102992;-84
2021/12/29 02:46:56;;;;;;;;;30.75;21.75;;;;;11.80;44.43;97179.44;4872583;28;104250;-85
2021/12/29 02:49:24;;;;;;;;;27.50;23.75;;;;;11.77;45.18;97182.66;4874212;28;102724;-84
2021/12/29 02:51:51;;;;;;;;;21.75;19.50;;;;;11.77;44.71;97178.06;4859236;28;103076;-84
2021/12/29 02:54:18;;;;;;;;;28.75;23.50;;;;;11.75;44.74;97176.66;4873631;28;102797;-84
2021/12/29 02:56:48;;;;;;;;;28.25;22.00;;;;;11.75;44.96;97179.38;4868981;28;104388;-85
2021/12/29 02:59:16;;;;;;;;;27.00;25.50;;;;;11.76;44.84;97162.88;4873763;28;102546;-84
2021/12/29 03:01:44;;;;;;;;;24.50;21.50;;;;;11.77;44.57;97163.69;4874851;28;103282;-84
2021/12/29 03:04:11;;;;;;;;;21.50;20.50;;;;;11.75;44.17;97160.41;4872068;28;103384;-84
2021/12/29 03:06:39;;;;;;;;;30.50;24.75;;;;;11.78;44.23;97170.75;4868580;28;103760;-84
2021/12/29 03:09:07;;;;;;;;;27.75;24.00;;;;;11.80;44.04;97164.00;4868476;28;102288;-83
2021/12/29 03:11:34;;;;;;;;;23.00;21.75;;;;;11.85;44.63;97166.81;4871288;28;102551;-84
2021/12/29 03:14:01;;;;;;;;;24.75;23.00;;;;;11.89;44.90;97151.72;4862766;28;102660;-84
2021/12/29 03:16:29;;;;;;;;;25.75;23.25;;;;;11.95;44.06;97153.47;4874741;28;104150;-84
2021/12/29 03:18:55;;;;;;;;;22.00;21.00;;;;;11.96;44.22;97157.00;4877607;28;102749;-84
2021/12/29 03:21:23;;;;;;;;;26.00;21.25;;;;;12.02;43.99;97158.72;4872466;28;102852;-84
2021/12/29 03:23:50;;;;;;;;;26.25;22.75;;;;;12.04;44.22;97149.28;4872524;28;102564;-84
2021/12/29 03:26:17;;;;;;;;;32.50;25.00;;;;;12.09;43.93;97159.38;4881168;28;104264;-84
2021/12/29 03:28:44;;;;;;;;;28.00;20.50;;;;;12.10;44.32;97158.31;4878586;28;102470;-84
2021/12/29 03:31:14;;;;;;;;;26.00;22.50;;;;;12.13;43.60;97167.81;4873921;28;102485;-84
2021/12/29 03:33:42;;;;;;;;;25.25;22.25;;;;;12.16;43.77;97156.53;4876241;28;102587;-84
2021/12/29 03:36:10;;;;;;;;;26.75;21.25;;;;;12.18;44.31;97160.63;4854747;28;104078;-84
2021/12/29 03:38:38;;;;;;;;;27.00;22.00;;;;;12.19;44.56;97162.25;4879055;28;104074;-84
2021/12/29 03:41:09;;;;;;;;;24.25;20.75;;;;;12.20;43.90;97163.09;4874630;28;102292;-84
2021/12/29 03:43:37;;;;;;;;;27.75;19.50;;;;;12.22;44.12;97164.47;4877572;28;102456;-84
2021/12/29 03:46:05;;;;;;;;;26.25;20.50;;;;;12.25;44.25;97165.84;4871122;28;104077;-84
2021/12/29 03:48:33;;;;;;;;;27.00;23.50;;;;;12.26;44.24;97171.03;4874149;28;102389;-84
2021/12/29 03:51:00;;;;;;;;;21.00;18.00;;;;;12.28;43.49;97174.34;4875156;28;102421;-84
2021/12/29 03:53:27;;;;;;;;;27.00;21.50;;;;;12.30;44.24;97183.03;4854413;28;104138;-84
2021/12/29 03:55:54;;;;;;;;;25.25;22.25;;;;;12.34;44.07;97186.88;4869513;28;103834;-84
2021/12/29 03:58:23;;;;;;;;;30.00;22.75;;;;;12.37;44.41;97181.00;4855411;28;102614;-84
2021/12/29 04:00:52;;;;;;;;;26.25;22.00;;;;;12.41;43.27;97187.56;4875120;28;102016;-84
2021/12/29 04:03:19;;;;;;;;;30.50;22.00;;;;;12.41;43.14;97192.97;4855519;28;102225;-84
2021/12/29 04:05:46;;;;;;;;;24.50;21.00;;;;;12.45;43.22;97204.13;4877337;28;104078;-85
2021/12/29 04:08:13;;;;;;;;;27.00;21.00;;;;;12.45;43.49;97198.72;4873888;28;102792;-84
2021/12/29 04:10:40;;;;;;;;;25.50;20.75;;;;;12.45;43.21;97202.25;4877888;28;104306;-84
2021/12/29 04:13:07;;;;;;;;;25.25;22.00;;;;;12.46;43.26;97203.91;4858816;28;102296;-84
2021/12/29 04:15:36;;;;;;;;;22.25;19.00;;;;;12.48;44.03;97204.47;4877212;28;104046;-84
2021/12/29 04:18:14;;;;;;;;;26.25;20.00;;;;;12.47;44.02;97197.38;4855277;28;102903;-84
2021/12/29 04:20:57;;;;;;;;;21.25;20.25;;;;;12.50;43.98;97199.63;4862956;28;102063;-84
2021/12/29 04:23:30;;;;;;;;;26.25;21.75;;;;;12.51;43.22;97203.97;4880618;28;102224;-83
2021/12/29 04:25:57;;;;;;;;;24.75;22.00;;;;;12.53;43.37;97203.72;4873285;28;104063;-84
2021/12/29 04:28:25;;;;;;;;;15.25;12.50;;;;;12.56;43.38;97194.28;4876698;28;101913;-82
2021/12/29 04:30:54;;;;;;;;;22.25;21.00;;;;;12.66;45.37;97191.72;4877392;28;103642;-82
2021/12/29 04:33:22;;;;;;;;;27.25;20.75;;;;;12.74;46.59;97191.31;4875400;28;103908;-82
2021/12/29 04:35:49;;;;;;;;;25.00;19.75;;;;;12.82;47.98;97196.31;4873544;28;104003;-82
2021/12/29 04:38:16;;;;;;;;;32.75;23.75;;;;;12.90;47.58;97190.44;4870879;28;103092;-82
2021/12/29 04:40:43;;;;;;;;;27.00;25.75;;;;;12.96;48.07;97194.88;4877418;28;102680;-82
2021/12/29 04:43:10;;;;;;;;;18.75;16.25;;;;;13.03;47.96;97195.50;4883461;28;102558;-82
2021/12/29 04:45:38;;;;;;;;;25.50;24.75;;;;;13.10;47.95;97196.16;4874608;28;104099;-82
2021/12/29 04:48:12;;;;;;;;;30.00;27.00;;;;;13.16;48.73;97197.88;4879374;28;102672;-82
2021/12/29 04:50:40;;;;;;;;;26.50;22.50;;;;;13.24;47.91;97200.16;4875586;28;102433;-82
2021/12/29 04:53:09;;;;;;;;;28.25;27.25;;;;;13.27;48.43;97191.53;4874395;28;102477;-82
2021/12/29 04:55:36;;;;;;;;;23.50;22.50;;;;;13.33;48.56;97193.22;4876445;28;104024;-82
2021/12/29 04:58:03;;;;;;;;;36.50;30.00;;;;;13.38;48.25;97192.44;4875353;28;102181;-82
2021/12/29 05:00:31;;;;;;;;;28.75;24.75;;;;;13.43;47.85;97189.78;4875731;28;102528;-82
2021/12/29 05:03:01;;;;;;;;;30.00;27.25;;;;;13.49;48.56;97196.13;4855442;28;102537;-82
2021/12/29 05:10:45;;;;;;;;;27.00;25.00;;;;;13.63;47.64;97191.94;4878148;28;102391;-82
2021/12/29 05:13:12;;;;;;;;;26.75;23.00;;;;;13.68;47.90;97200.16;4880144;28;102615;-82
2021/12/29 05:15:39;;;;;;;;;30.00;24.25;;;;;13.72;48.21;97206.72;4857735;28;104036;-82
2021/12/29 05:18:06;;;;;;;;;30.75;24.00;;;;;13.76;48.46;97203.22;4871411;28;102582;-82
2021/12/29 05:20:36;;;;;;;;;31.25;26.75;;;;;13.79;48.25;97205.41;4874932;28;103227;-82
2021/12/29 05:23:03;;;;;;;;;27.50;22.25;;;;;13.84;48.09;97207.38;4874691;28;103011;-82
2021/12/29 05:25:30;;;;;;;;;30.25;26.25;;;;;13.89;47.61;97212.88;4878497;28;103975;-82
2021/12/29 05:27:57;;;;;;;;;25.00;22.00;;;;;13.92;47.34;97217.78;4877619;28;102104;-82
2021/12/29 05:30:26;;;;;;;;;32.00;25.00;;;;;13.97;47.27;97225.16;4875784;28;102429;-82
2021/12/29 05:32:53;;;;;;;;;33.00;24.75;;;;;14.00;47.43;97217.34;4884372;28;102693;-82
2021/12/29 05:35:25;;;;;;;;;27.25;23.75;;;;;14.05;47.67;97232.88;4877229;28;104409;-82
2021/12/29 05:37:53;;;;;;;;;28.75;23.50;;;;;14.09;47.94;97232.09;4855243;28;103042;-82
2021/12/29 05:40:20;;;;;;;;;34.25;25.75;;;;;14.13;47.84;97233.22;4874515;28;102107;-82
2021/12/29 05:42:47;;;;;;;;;25.75;23.00;;;;;14.16;47.40;97243.59;4880013;28;102156;-82
2021/12/29 05:45:14;;;;;;;;;25.50;24.00;;;;;14.19;47.13;97245.78;4860564;28;103835;-82
2021/12/29 05:47:42;;;;;;;;;28.50;26.00;;;;;14.23;47.29;97244.19;4873438;28;102333;-82
2021/12/29 05:50:11;;;;;;;;;25.25;23.25;;;;;14.28;47.67;97240.69;4873633;28;102424;-82
2021/12/29 05:52:38;;;;;;;;;25.50;23.75;;;;;14.29;47.34;97237.72;4870790;28;102569;-82
2021/12/29 05:55:05;;;;;;;;;29.00;24.50;;;;;14.34;46.97;97245.09;4876844;28;104128;-82
2021/12/29 05:57:33;;;;;;;;;30.25;25.25;;;;;14.35;46.97;97249.47;4874405;28;102302;-82
2021/12/29 06:00:00;;;;;;;;;24.50;23.25;;;;;14.39;47.65;97247.91;4879038;28;102073;-82
2021/12/29 06:02:27;;;;;;;;;28.25;26.00;;;;;14.42;46.81;97241.13;4874273;28;103699;-82
2021/12/29 06:04:54;;;;;;;;;25.25;23.25;;;;;14.45;47.65;97246.88;4878384;28;103995;-82
2021/12/29 06:07:21;;;;;;;;;25.75;22.50;;;;;14.47;47.24;97249.31;4881871;28;103065;-82
2021/12/29 06:09:48;;;;;;;;;20.75;19.00;;;;;14.51;46.77;97239.56;4871613;28;102353;-82
2021/12/29 06:12:15;;;;;;;;;33.75;25.25;;;;;14.54;46.61;97249.94;4881610;28;102348;-82
2021/12/29 06:14:44;;;;;;;;;25.50;22.75;;;;;14.57;47.24;97254.84;4876846;28;103995;-82
2021/12/29 06:17:12;;;;;;;;;25.75;24.75;;;;;14.60;47.21;97254.34;4874010;28;102585;-82
2021/12/29 06:19:40;;;;;;;;;25.75;24.50;;;;;14.62;46.43;97265.78;4875401;28;102261;-82
2021/12/29 06:22:11;;;;;;;;;29.25;26.25;;;;;14.66;46.38;97277.78;4875008;28;102234;-82
2021/12/29 06:24:38;;;;;;;;;26.75;25.25;;;;;14.68;46.41;97267.44;4867435;28;103973;-82
2021/12/29 06:27:05;;;;;;;;;26.75;21.50;;;;;14.70;46.62;97268.84;4872087;28;103321;-82
2021/12/29 06:29:32;;;;;;;;;30.25;24.75;;;;;14.72;46.47;97276.75;4879575;28;102534;-82
2021/12/29 06:32:00;;;;;;;;;25.50;24.25;;;;;14.74;46.38;97271.88;4872072;28;102550;-82
2021/12/29 06:34:27;;;;;;;;;29.25;24.75;;;;;14.77;46.58;97287.66;4873653;28;103800;-82
2021/12/29 06:36:54;;;;;;;;;27.00;25.25;;;;;14.78;46.43;97283.88;4877224;28;102261;-82
2021/12/29 06:39:22;;;;;;;;;29.50;27.00;;;;;14.80;46.75;97283.63;4864064;28;103399;-82
2021/12/29 06:41:49;;;;;;;;;30.50;26.00;;;;;14.82;46.45;97284.97;4877228;28;102258;-82
2021/12/29 06:44:16;;;;;;;;;27.25;27.00;;;;;14.83;46.61;97286.63;4882730;28;104097;-82
2021/12/29 06:46:43;;;;;;;;;26.00;23.75;;;;;14.86;46.28;97297.00;4880756;28;102662;-82
2021/12/29 06:49:10;;;;;;;;;26.50;22.00;;;;;14.88;46.10;97299.47;4877861;28;102414;-82
2021/12/29 06:51:37;;;;;;;;;28.00;24.75;;;;;14.89;46.32;97296.50;4881789;28;103458;-82
2021/12/29 06:54:05;;;;;;;;;33.25;25.50;;;;;14.91;45.99;97288.88;4876538;28;104087;-82
2021/12/29 06:56:32;;;;;;;;;27.25;24.75;;;;;14.93;46.53;97289.44;4873512;28;102657;-82
2021/12/29 06:58:59;;;;;;;;;28.50;26.00;;;;;14.96;46.24;97290.81;4879154;28;102175;-82
2021/12/29 07:01:26;;;;;;;;;27.75;23.25;;;;;14.98;46.25;97288.66;4885781;28;102007;-82
2021/12/29 07:03:53;;;;;;;;;26.25;21.50;;;;;15.00;46.25;97294.66;4883253;28;104157;-82
2021/12/29 07:06:20;;;;;;;;;23.75;21.50;;;;;15.00;46.46;97292.75;4877008;28;102604;-82
2021/12/29 07:08:47;;;;;;;;;26.50;24.00;;;;;15.03;46.16;97307.75;4873856;28;102974;-82
2021/12/29 07:11:14;;;;;;;;;29.00;24.75;;;;;15.06;46.32;97307.22;4874356;28;102569;-82
2021/12/29 07:13:42;;;;;;;;;26.00;22.50;;;;;15.07;46.42;97309.69;4874360;28;103864;-82
2021/12/29 07:16:09;;;;;;;;;27.00;23.25;;;;;15.08;46.69;97313.25;4875955;28;102475;-83
2021/12/29 07:18:37;;;;;;;;;25.00;22.25;;;;;15.09;46.41;97307.50;4877597;28;102690;-82
2021/12/29 07:21:04;;;;;;;;;24.25;22.50;;;;;15.09;46.15;97312.13;4881353;28;102702;-82
2021/12/29 07:23:31;;;;;;;;;20.25;18.75;;;;;15.11;45.92;97321.69;4852496;28;104057;-82
2021/12/29 07:25:58;;;;;;;;;33.75;25.00;;;;;15.13;46.68;97327.69;4849151;28;102496;-82
2021/12/29 07:28:25;;;;;;;;;29.00;23.25;;;;;15.15;46.33;97322.81;4868814;28;102676;-82
2021/12/29 07:30:52;;;;;;;;;25.00;23.25;;;;;15.15;46.09;97313.81;4873766;28;102867;-82
2021/12/29 07:33:19;;;;;;;;;27.75;23.50;;;;;15.17;46.17;97336.19;4875769;28;103786;-81
2021/12/29 07:35:46;;;;;;;;;28.50;24.00;;;;;15.19;46.42;97326.66;4878592;28;102606;-81
2021/12/29 07:38:13;;;;;;;;;29.50;25.50;;;;;15.21;46.20;97331.84;4873066;28;102771;-81
2021/12/29 07:40:40;;;;;;;;;26.25;21.75;;;;;15.21;46.02;97331.03;4874974;28;105823;-81
2021/12/29 07:43:07;;;;;;;;;25.25;21.25;;;;;15.23;46.24;97345.19;4872434;28;103792;-81
2021/12/29 07:45:34;;;;;;;;;26.50;25.00;;;;;15.24;46.34;97342.22;4880182;28;102549;-81
2021/12/29 07:48:04;;;;;;;;;24.00;22.00;;;;;15.26;45.39;97347.41;4875726;28;102203;-81
2021/12/29 07:50:31;;;;;;;;;25.00;21.25;;;;;15.28;45.96;97353.41;4877164;28;102221;-82
2021/12/29 07:52:58;;;;;;;;;25.50;22.00;;;;;15.27;45.96;97359.91;4876045;28;104248;-81
2021/12/29 07:55:25;;;;;;;;;31.25;23.25;;;;;15.29;46.16;97360.50;4873628;28;103248;-82
2021/12/29 07:57:52;;;;;;;;;28.25;23.50;;;;;15.30;45.95;97359.41;4881244;28;102504;-82
2021/12/29 08:00:19;;;;;;;;;27.75;23.25;;;;;15.30;45.77;97356.69;4868995;28;102707;-82
2021/12/29 08:02:47;;;;;;;;;21.50;20.75;;;;;15.29;45.79;97355.88;4874804;28;103869;-82
2021/12/29 08:05:15;;;;;;;;;26.00;26.00;;;;;15.31;45.82;97359.13;4874677;28;105038;-82
2021/12/29 08:07:45;;;;;;;;;32.25;25.50;;;;;15.31;45.86;97356.41;4875615;28;102085;-82
2021/12/29 08:10:12;;;;;;;;;22.75;17.75;;;;;15.32;45.79;97359.97;4844827;28;102180;-81
2021/12/29 08:12:39;;;;;;;;;27.00;23.50;;;;;15.32;45.69;97368.13;4858521;28;104017;-85
2021/12/29 08:15:06;;;;;;;;;30.50;26.00;;;;;15.22;45.44;97370.81;4864129;28;102463;-85
2021/12/29 08:17:36;;;;;;;;;27.25;26.00;;;;;15.09;44.58;97378.31;4870681;28;102636;-85
2021/12/29 08:20:06;;;;;;;;;30.75;27.50;;;;;15.02;45.29;97380.44;4871252;28;102772;-87
2021/12/29 08:22:35;;;;;;;;;38.00;28.25;;;;;14.96;45.25;97372.47;4874012;28;103958;-87
2021/12/29 08:25:04;;;;;;;;;26.00;25.00;;;;;14.90;45.51;97368.91;4850904;28;102619;-87
2021/12/29 08:27:31;;;;;;;;;28.25;19.00;;;;;14.85;45.25;97373.47;4869535;28;102126;-87
2021/12/29 08:29:58;;;;;;;;;34.75;26.75;;;;;14.80;45.23;97374.25;4876263;28;102595;-87
2021/12/29 08:32:26;;;;;;;;;30.50;27.75;;;;;14.75;45.11;97368.75;4868051;28;104105;-87
2021/12/29 08:34:54;;;;;;;;;37.75;26.75;;;;;14.72;45.08;97374.72;4872054;28;103085;-88
2021/12/29 08:37:21;;;;;;;;;31.50;27.75;;;;;14.69;45.50;97383.38;4871656;28;103491;-87
2021/12/29 08:39:48;;;;;;;;;31.00;29.50;;;;;14.65;45.52;97387.69;4872177;28;102711;-88
2021/12/29 08:42:15;;;;;;;;;30.25;27.75;;;;;14.62;45.59;97388.22;4862130;28;103997;-87
2021/12/29 08:44:42;;;;;;;;;33.25;24.00;;;;;14.59;45.31;97399.63;4871489;28;102625;-87
2021/12/29 08:47:09;;;;;;;;;32.25;27.25;;;;;14.55;45.29;97387.56;4864991;28;102728;-87
2021/12/29 08:49:36;;;;;;;;;31.25;26.25;;;;;14.53;45.42;97389.75;4878841;28;102663;-87
2021/12/29 08:52:04;;;;;;;;;29.50;25.50;;;;;14.48;45.53;97385.06;4867390;28;104510;-87
2021/12/29 08:54:32;;;;;;;;;22.00;19.25;;;;;14.47;45.44;97390.75;4851970;28;102672;-87
2021/12/29 08:56:59;;;;;;;;;29.25;25.50;;;;;14.44;45.61;97392.09;4869536;28;103143;-86
2021/12/29 08:59:26;;;;;;;;;24.75;20.75;;;;;14.41;45.30;97392.59;4873290;28;102644;-87
2021/12/29 09:01:53;;;;;;;;;28.75;26.75;;;;;14.39;45.59;97389.31;4864823;28;104110;-87
2021/12/29 09:04:21;;;;;;;;;24.50;21.00;;;;;14.38;45.64;97395.00;4871977;28;102563;-87
2021/12/29 09:06:48;;;;;;;;;26.50;23.25;;;;;14.35;44.99;97398.22;4870163;28;105913;-87
2021/12/29 09:09:15;;;;;;;;;26.00;23.00;;;;;14.35;44.98;97398.22;4873336;28;102410;-87
2021/12/29 09:11:43;;;;;;;;;30.25;27.75;;;;;14.32;44.96;97404.97;4871160;28;104627;-87
2021/12/29 09:14:10;;;;;;;;;26.50;24.50;;;;;14.29;45.42;97408.19;4862865;28;102422;-87
2021/12/29 09:16:37;;;;;;;;;24.25;22.50;;;;;14.28;44.81;97404.66;4866801;28;102090;-85
2021/12/29 09:19:05;;;;;;;;;25.75;24.25;;;;;14.28;44.76;97401.09;4872538;28;104749;-86
2021/12/29 09:21:34;;;;;;;;;25.50;22.25;;;;;14.26;45.65;97406.00;4867821;28;104027;-86
2021/12/29 09:24:01;;;;;;;;;26.75;24.50;;;;;14.21;45.07;97404.03;4867656;28;102104;-86
2021/12/29 09:26:28;;;;;;;;;24.50;21.75;;;;;14.19;45.03;97398.00;4850846;28;102783;-86
2021/12/29 09:28:55;;;;;;;;;30.00;24.25;;;;;14.17;45.34;97399.34;4870752;28;102385;-86
2021/12/29 09:31:22;;;;;;;;;29.75;23.50;;;;;14.15;44.86;97396.06;4872523;28;104857;-87
2021/12/29 09:33:49;;;;;;;;;28.50;24.00;;;;;14.14;44.72;97408.00;4867560;28;102182;-86
2021/12/29 09:36:16;;;;;;;;;25.00;22.25;;;;;14.12;45.48;97402.84;4869662;28;102583;-86
2021/12/29 09:38:43;;;;;;;;;30.00;23.75;;;;;14.10;44.85;97401.44;4872497;28;102734;-86
2021/12/29 09:41:15;;;;;;;;;23.00;19.00;;;;;14.07;45.38;97404.66;4863117;28;103994;-87
2021/12/29 09:43:43;;;;;;;;;28.00;22.00;;;;;14.06;45.47;97384.81;4866604;28;102272;-86
2021/12/29 09:46:10;;;;;;;;;25.50;21.50;;;;;14.04;45.39;97400.56;4868110;28;102080;-87
2021/12/29 09:48:37;;;;;;;;;21.00;20.00;;;;;14.03;45.25;97398.91;4847800;28;102202;-86
2021/12/29 09:51:06;;;;;;;;;28.00;23.50;;;;;14.01;45.32;97401.03;4871267;28;104188;-86
2021/12/29 09:53:34;;;;;;;;;25.50;19.00;;;;;14.00;44.59;97402.16;4868458;28;103719;-86
2021/12/29 09:56:06;;;;;;;;;27.75;23.50;;;;;13.97;45.11;97410.78;4865614;28;102534;-86
2021/12/29 09:58:33;;;;;;;;;22.75;19.75;;;;;13.95;45.57;97407.50;4871331;28;102704;-86
2021/12/29 10:01:04;;;;;;;;;32.50;25.00;;;;;13.93;44.66;97406.09;4865412;28;104048;-86
2021/12/29 10:03:32;;;;;;;;;23.50;18.75;;;;;13.90;44.66;97412.88;4867245;28;102170;-86
2021/12/29 10:06:01;;;;;;;;;24.75;22.25;;;;;13.89;44.75;97410.41;4866762;28;102447;-86
2021/12/29 10:08:30;;;;;;;;;26.50;22.00;;;;;13.85;44.64;97412.81;4871570;28;103395;-86
2021/12/29 10:11:03;;;;;;;;;28.25;19.75;;;;;13.83;45.13;97423.09;4865590;28;103759;-86
2021/12/29 10:13:31;;;;;;;;;24.00;20.00;;;;;13.80;45.50;97426.31;4847248;28;102684;-86
2021/12/29 10:16:13;;;;;;;;;24.25;21.25;;;;;13.76;44.64;97427.88;4872040;28;102710;-86
2021/12/29 10:18:43;;;;;;;;;18.50;18.25;;;;;13.76;45.22;97436.03;4870580;28;102582;-86
2021/12/29 10:21:14;;;;;;;;;25.50;21.25;;;;;13.74;45.19;97427.31;4865313;28;104066;-86
2021/12/29 10:23:44;;;;;;;;;20.00;17.75;;;;;13.71;45.05;97419.66;4871148;28;102372;-86
2021/12/29 10:26:33;;;;;;;;;21.75;20.25;;;;;13.71;45.52;97425.09;4866884;28;102216;-86
2021/12/29 10:29:07;;;;;;;;;23.75;20.25;;;;;13.69;44.71;97416.34;4869279;28;102236;-86
2021/12/29 10:31:46;;;;;;;;;20.25;19.75;;;;;13.69;45.56;97416.34;4872654;28;104153;-87
2021/12/29 10:34:18;;;;;;;;;23.50;19.00;;;;;13.65;45.21;97426.91;4873266;28;103088;-86
2021/12/29 10:36:51;;;;;;;;;19.75;18.00;;;;;13.63;45.27;97414.66;4864326;28;102613;-86
2021/12/29 10:39:26;;;;;;;;;23.50;19.25;;;;;13.62;45.22;97410.28;4871542;28;102128;-85
2021/12/29 10:41:55;;;;;;;;;18.75;18.00;;;;;13.62;44.85;97413.84;4863754;28;104102;-86
2021/12/29 10:44:34;;;;;;;;;22.25;19.00;;;;;13.61;45.36;97414.06;4870007;28;102196;-85
2021/12/29 10:47:02;;;;;;;;;23.00;19.75;;;;;13.61;45.16;97419.50;4874511;28;102601;-86
2021/12/29 10:49:29;;;;;;;;;25.50;19.00;;;;;13.59;45.47;97418.94;4870764;28;102564;-85
2021/12/29 10:51:57;;;;;;;;;18.50;18.50;;;;;13.59;44.55;97427.09;4867810;28;104118;-86
2021/12/29 10:54:29;;;;;;;;;23.00;18.50;;;;;13.56;44.60;97424.84;4869959;28;102571;-86
2021/12/29 10:57:07;;;;;;;;;25.25;19.00;;;;;13.55;44.59;97426.78;4868961;28;102156;-85
2021/12/29 10:59:37;;;;;;;;;12.00;12.00;;;;;13.53;44.48;97417.22;4867503;28;102713;-86
2021/12/29 11:02:04;;;;;;;;;25.25;19.25;;;;;13.51;44.52;97414.75;4872490;28;104299;-85
2021/12/29 11:04:32;;;;;;;;;24.25;22.00;;;;;13.51;45.06;97411.22;4868918;28;102596;-85
2021/12/29 11:07:01;;;;;;;;;25.50;20.25;;;;;13.50;44.44;97410.41;4878670;28;102578;-85
2021/12/29 11:09:35;;;;;;;;;19.25;18.50;;;;;13.49;44.55;97410.63;4873683;28;102189;-85
2021/12/29 11:12:10;;;;;;;;;23.75;19.25;;;;;13.49;44.74;97410.63;4866795;28;104403;-85
2021/12/29 11:14:42;;;;;;;;;20.75;18.25;;;;;13.47;44.98;97410.88;4874427;28;102837;-85
2021/12/29 11:17:15;;;;;;;;;18.75;18.00;;;;;13.47;45.37;97418.19;4868029;28;102731;-85
2021/12/29 11:20:03;;;;;;;;;22.25;18.75;;;;;13.45;44.56;97414.94;4870104;28;102643;-85